sensor_id;sensor_type;location;lat;lon;timestamp;P1;durP1;ratioP1;P2;durP2;ratioP2
34433;SDS011;34290;48.562;13.384;2023-04-06T00:01:02;8.40;;;3.93;;
34433;SDS011;34290;48.562;13.384;2023-04-06T00:03:30;7.23;;;3.73;;
34433;SDS011;34290;48.562;13.384;2023-04-06T00:05:57;10.93;;;3.83;;
34433;SDS011;34290;48.562;13.384;2023-04-06T00:08:25;10.50;;;5.30;;
34433;SDS011;34290;48.562;13.384;2023-04-06T00:10:52;8.10;;;4.27;;
34433;SDS011;34290;48.562;13.384;2023-04-06T00:13:19;8.20;;;3.87;;
34433;SDS011;34290;48.562;13.384;2023-04-06T00:15:47;7.40;;;4.13;;
34433;SDS011;34290;48.562;13.384;2023-04-06T00:18:15;7.93;;;3.97;;
34433;SDS011;34290;48.562;13.384;2023-04-06T00:20:43;6.53;;;4.00;;
34433;SDS011;34290;48.562;13.384;2023-04-06T00:23:10;7.03;;;3.97;;
34433;SDS011;34290;48.562;13.384;2023-04-06T00:25:37;7.40;;;3.90;;
34433;SDS011;34290;48.562;13.384;2023-04-06T00:28:04;7.27;;;4.00;;
34433;SDS011;34290;48.562;13.384;2023-04-06T00:30:31;8.47;;;4.30;;
34433;SDS011;34290;48.562;13.384;2023-04-06T00:32:58;8.27;;;4.00;;
34433;SDS011;34290;48.562;13.384;2023-04-06T00:35:27;11.80;;;4.13;;
34433;SDS011;34290;48.562;13.384;2023-04-06T00:37:54;7.80;;;3.83;;
34433;SDS011;34290;48.562;13.384;2023-04-06T00:40:21;8.07;;;4.43;;
34433;SDS011;34290;48.562;13.384;2023-04-06T00:42:48;7.90;;;3.93;;
34433;SDS011;34290;48.562;13.384;2023-04-06T00:45:16;6.93;;;4.20;;
34433;SDS011;34290;48.562;13.384;2023-04-06T00:47:43;7.70;;;3.90;;
34433;SDS011;34290;48.562;13.384;2023-04-06T00:50:10;7.43;;;4.07;;
34433;SDS011;34290;48.562;13.384;2023-04-06T00:52:39;6.87;;;3.90;;
34433;SDS011;34290;48.562;13.384;2023-04-06T00:55:06;8.90;;;4.20;;
34433;SDS011;34290;48.562;13.384;2023-04-06T00:57:34;9.13;;;4.07;;
34433;SDS011;34290;48.562;13.384;2023-04-06T01:00:02;8.40;;;3.73;;
34433;SDS011;34290;48.562;13.384;2023-04-06T01:02:30;9.40;;;4.00;;
34433;SDS011;34290;48.562;13.384;2023-04-06T01:04:57;7.43;;;4.30;;
34433;SDS011;34290;48.562;13.384;2023-04-06T01:07:24;10.73;;;4.30;;
34433;SDS011;34290;48.562;13.384;2023-04-06T01:09:54;7.27;;;4.27;;
34433;SDS011;34290;48.562;13.384;2023-04-06T01:12:21;6.80;;;3.83;;
34433;SDS011;34290;48.562;13.384;2023-04-06T01:14:48;10.53;;;4.40;;
34433;SDS011;34290;48.562;13.384;2023-04-06T01:17:15;9.40;;;4.23;;
34433;SDS011;34290;48.562;13.384;2023-04-06T01:19:43;7.67;;;4.20;;
34433;SDS011;34290;48.562;13.384;2023-04-06T01:22:14;7.80;;;4.23;;
34433;SDS011;34290;48.562;13.384;2023-04-06T01:24:42;6.90;;;4.13;;
34433;SDS011;34290;48.562;13.384;2023-04-06T01:27:09;4.53;;;3.40;;
34433;SDS011;34290;48.562;13.384;2023-04-06T01:29:37;7.03;;;3.87;;
34433;SDS011;34290;48.562;13.384;2023-04-06T01:32:06;9.63;;;4.20;;
34433;SDS011;34290;48.562;13.384;2023-04-06T01:34:33;8.30;;;4.40;;
34433;SDS011;34290;48.562;13.384;2023-04-06T01:37:01;10.03;;;4.53;;
34433;SDS011;34290;48.562;13.384;2023-04-06T01:39:29;5.73;;;3.90;;
34433;SDS011;34290;48.562;13.384;2023-04-06T01:41:57;7.10;;;4.10;;
34433;SDS011;34290;48.562;13.384;2023-04-06T01:44:24;8.90;;;4.00;;
34433;SDS011;34290;48.562;13.384;2023-04-06T01:46:52;7.47;;;4.13;;
34433;SDS011;34290;48.562;13.384;2023-04-06T01:49:19;8.93;;;4.17;;
34433;SDS011;34290;48.562;13.384;2023-04-06T01:51:46;7.03;;;4.53;;
34433;SDS011;34290;48.562;13.384;2023-04-06T01:54:14;12.77;;;4.00;;
34433;SDS011;34290;48.562;13.384;2023-04-06T01:56:42;9.83;;;4.67;;
34433;SDS011;34290;48.562;13.384;2023-04-06T01:59:09;7.30;;;4.13;;
34433;SDS011;34290;48.562;13.384;2023-04-06T02:01:36;10.20;;;4.30;;
34433;SDS011;34290;48.562;13.384;2023-04-06T02:04:04;8.43;;;4.50;;
34433;SDS011;34290;48.562;13.384;2023-04-06T02:06:31;14.13;;;4.73;;
34433;SDS011;34290;48.562;13.384;2023-04-06T02:08:58;8.33;;;4.83;;
34433;SDS011;34290;48.562;13.384;2023-04-06T02:11:25;7.87;;;4.43;;
34433;SDS011;34290;48.562;13.384;2023-04-06T02:13:54;8.33;;;4.50;;
34433;SDS011;34290;48.562;13.384;2023-04-06T02:16:22;6.87;;;4.47;;
34433;SDS011;34290;48.562;13.384;2023-04-06T02:18:49;7.70;;;4.50;;
34433;SDS011;34290;48.562;13.384;2023-04-06T02:21:17;10.13;;;4.80;;
34433;SDS011;34290;48.562;13.384;2023-04-06T02:23:45;8.63;;;4.57;;
34433;SDS011;34290;48.562;13.384;2023-04-06T02:26:12;7.57;;;4.57;;
34433;SDS011;34290;48.562;13.384;2023-04-06T02:28:40;8.70;;;3.90;;
34433;SDS011;34290;48.562;13.384;2023-04-06T02:31:08;8.47;;;4.37;;
34433;SDS011;34290;48.562;13.384;2023-04-06T02:33:36;14.67;;;4.47;;
34433;SDS011;34290;48.562;13.384;2023-04-06T02:36:03;10.73;;;4.30;;
34433;SDS011;34290;48.562;13.384;2023-04-06T02:38:30;11.00;;;5.10;;
34433;SDS011;34290;48.562;13.384;2023-04-06T02:40:57;9.00;;;4.97;;
34433;SDS011;34290;48.562;13.384;2023-04-06T02:43:25;7.53;;;4.63;;
34433;SDS011;34290;48.562;13.384;2023-04-06T02:45:52;9.07;;;5.07;;
34433;SDS011;34290;48.562;13.384;2023-04-06T02:48:21;8.33;;;4.90;;
34433;SDS011;34290;48.562;13.384;2023-04-06T02:50:48;11.37;;;5.70;;
34433;SDS011;34290;48.562;13.384;2023-04-06T02:53:15;8.87;;;5.00;;
34433;SDS011;34290;48.562;13.384;2023-04-06T02:55:42;12.23;;;5.10;;
34433;SDS011;34290;48.562;13.384;2023-04-06T02:58:09;15.70;;;6.47;;
34433;SDS011;34290;48.562;13.384;2023-04-06T03:00:37;9.53;;;5.40;;
34433;SDS011;34290;48.562;13.384;2023-04-06T03:03:04;11.83;;;5.33;;
34433;SDS011;34290;48.562;13.384;2023-04-06T03:05:34;13.50;;;5.40;;
34433;SDS011;34290;48.562;13.384;2023-04-06T03:08:01;12.30;;;5.33;;
34433;SDS011;34290;48.562;13.384;2023-04-06T03:10:28;7.97;;;4.57;;
34433;SDS011;34290;48.562;13.384;2023-04-06T03:12:56;9.70;;;4.87;;
34433;SDS011;34290;48.562;13.384;2023-04-06T03:15:23;8.83;;;4.93;;
34433;SDS011;34290;48.562;13.384;2023-04-06T03:17:50;7.93;;;4.63;;
34433;SDS011;34290;48.562;13.384;2023-04-06T03:20:17;10.37;;;4.90;;
34433;SDS011;34290;48.562;13.384;2023-04-06T03:22:46;8.83;;;4.80;;
34433;SDS011;34290;48.562;13.384;2023-04-06T03:25:13;13.43;;;5.23;;
34433;SDS011;34290;48.562;13.384;2023-04-06T03:27:40;11.90;;;5.40;;
34433;SDS011;34290;48.562;13.384;2023-04-06T03:30:07;7.77;;;5.10;;
34433;SDS011;34290;48.562;13.384;2023-04-06T03:32:35;12.57;;;5.37;;
34433;SDS011;34290;48.562;13.384;2023-04-06T03:35:02;9.37;;;4.97;;
34433;SDS011;34290;48.562;13.384;2023-04-06T03:37:30;12.10;;;5.47;;
34433;SDS011;34290;48.562;13.384;2023-04-06T03:39:58;8.60;;;5.07;;
34433;SDS011;34290;48.562;13.384;2023-04-06T03:42:25;10.10;;;5.20;;
34433;SDS011;34290;48.562;13.384;2023-04-06T03:44:53;10.60;;;5.70;;
34433;SDS011;34290;48.562;13.384;2023-04-06T03:47:20;10.57;;;5.50;;
34433;SDS011;34290;48.562;13.384;2023-04-06T03:49:47;11.13;;;5.47;;
34433;SDS011;34290;48.562;13.384;2023-04-06T03:52:14;11.53;;;5.33;;
34433;SDS011;34290;48.562;13.384;2023-04-06T03:54:41;11.03;;;5.20;;
34433;SDS011;34290;48.562;13.384;2023-04-06T03:57:10;9.77;;;5.17;;
34433;SDS011;34290;48.562;13.384;2023-04-06T03:59:37;10.70;;;5.60;;
34433;SDS011;34290;48.562;13.384;2023-04-06T04:02:04;10.17;;;5.57;;
34433;SDS011;34290;48.562;13.384;2023-04-06T04:04:32;13.70;;;5.77;;
34433;SDS011;34290;48.562;13.384;2023-04-06T04:06:59;10.50;;;5.60;;
34433;SDS011;34290;48.562;13.384;2023-04-06T04:09:26;11.23;;;5.40;;
34433;SDS011;34290;48.562;13.384;2023-04-06T04:11:54;14.80;;;5.27;;
34433;SDS011;34290;48.562;13.384;2023-04-06T04:14:22;10.17;;;5.30;;
34433;SDS011;34290;48.562;13.384;2023-04-06T04:16:50;13.13;;;6.13;;
34433;SDS011;34290;48.562;13.384;2023-04-06T04:19:17;12.47;;;5.47;;
34433;SDS011;34290;48.562;13.384;2023-04-06T04:21:45;11.87;;;5.60;;
34433;SDS011;34290;48.562;13.384;2023-04-06T04:24:16;9.10;;;5.40;;
34433;SDS011;34290;48.562;13.384;2023-04-06T04:26:43;9.20;;;5.07;;
34433;SDS011;34290;48.562;13.384;2023-04-06T04:29:10;10.57;;;5.30;;
34433;SDS011;34290;48.562;13.384;2023-04-06T04:31:39;17.97;;;6.10;;
34433;SDS011;34290;48.562;13.384;2023-04-06T04:34:06;14.67;;;5.97;;
34433;SDS011;34290;48.562;13.384;2023-04-06T04:36:33;11.17;;;5.33;;
34433;SDS011;34290;48.562;13.384;2023-04-06T04:39:00;11.03;;;6.37;;
34433;SDS011;34290;48.562;13.384;2023-04-06T04:41:28;16.87;;;5.27;;
34433;SDS011;34290;48.562;13.384;2023-04-06T04:43:55;10.13;;;5.63;;
34433;SDS011;34290;48.562;13.384;2023-04-06T04:46:22;13.03;;;6.00;;
34433;SDS011;34290;48.562;13.384;2023-04-06T04:48:50;15.03;;;5.63;;
34433;SDS011;34290;48.562;13.384;2023-04-06T04:51:18;10.07;;;5.60;;
34433;SDS011;34290;48.562;13.384;2023-04-06T04:53:45;14.33;;;6.27;;
34433;SDS011;34290;48.562;13.384;2023-04-06T04:56:13;10.93;;;5.57;;
34433;SDS011;34290;48.562;13.384;2023-04-06T04:58:40;12.53;;;6.23;;
34433;SDS011;34290;48.562;13.384;2023-04-06T05:01:07;10.60;;;6.20;;
34433;SDS011;34290;48.562;13.384;2023-04-06T05:03:36;17.30;;;6.27;;
34433;SDS011;34290;48.562;13.384;2023-04-06T05:06:06;12.53;;;5.77;;
34433;SDS011;34290;48.562;13.384;2023-04-06T05:08:33;11.20;;;4.83;;
34433;SDS011;34290;48.562;13.384;2023-04-06T05:11:00;9.37;;;5.13;;
34433;SDS011;34290;48.562;13.384;2023-04-06T05:13:29;8.73;;;5.00;;
34433;SDS011;34290;48.562;13.384;2023-04-06T05:15:56;9.00;;;5.40;;
34433;SDS011;34290;48.562;13.384;2023-04-06T05:18:23;8.77;;;4.63;;
34433;SDS011;34290;48.562;13.384;2023-04-06T05:20:50;6.73;;;4.27;;
34433;SDS011;34290;48.562;13.384;2023-04-06T05:23:19;8.20;;;4.47;;
34433;SDS011;34290;48.562;13.384;2023-04-06T05:25:46;7.60;;;4.50;;
34433;SDS011;34290;48.562;13.384;2023-04-06T05:28:13;9.83;;;4.60;;
34433;SDS011;34290;48.562;13.384;2023-04-06T05:30:41;7.47;;;4.60;;
34433;SDS011;34290;48.562;13.384;2023-04-06T05:33:09;11.80;;;4.57;;
34433;SDS011;34290;48.562;13.384;2023-04-06T05:35:36;6.90;;;4.60;;
34433;SDS011;34290;48.562;13.384;2023-04-06T05:38:03;9.67;;;4.97;;
34433;SDS011;34290;48.562;13.384;2023-04-06T05:40:32;9.03;;;4.90;;
34433;SDS011;34290;48.562;13.384;2023-04-06T05:42:59;8.27;;;4.43;;
34433;SDS011;34290;48.562;13.384;2023-04-06T05:45:26;7.23;;;4.17;;
34433;SDS011;34290;48.562;13.384;2023-04-06T05:47:53;11.87;;;4.30;;
34433;SDS011;34290;48.562;13.384;2023-04-06T05:50:20;10.70;;;4.30;;
34433;SDS011;34290;48.562;13.384;2023-04-06T05:52:47;7.40;;;4.53;;
34433;SDS011;34290;48.562;13.384;2023-04-06T05:55:14;7.97;;;3.93;;
34433;SDS011;34290;48.562;13.384;2023-04-06T05:57:43;7.10;;;4.40;;
34433;SDS011;34290;48.562;13.384;2023-04-06T06:00:10;8.97;;;4.23;;
34433;SDS011;34290;48.562;13.384;2023-04-06T06:02:39;6.87;;;4.07;;
34433;SDS011;34290;48.562;13.384;2023-04-06T06:05:07;8.33;;;4.17;;
34433;SDS011;34290;48.562;13.384;2023-04-06T06:07:35;6.20;;;3.93;;
34433;SDS011;34290;48.562;13.384;2023-04-06T06:10:02;11.00;;;4.57;;
34433;SDS011;34290;48.562;13.384;2023-04-06T06:12:30;13.37;;;5.43;;
34433;SDS011;34290;48.562;13.384;2023-04-06T06:14:58;32.93;;;6.03;;
34433;SDS011;34290;48.562;13.384;2023-04-06T06:17:26;9.57;;;5.33;;
34433;SDS011;34290;48.562;13.384;2023-04-06T06:19:53;15.80;;;6.77;;
34433;SDS011;34290;48.562;13.384;2023-04-06T06:22:20;9.37;;;5.10;;
34433;SDS011;34290;48.562;13.384;2023-04-06T06:24:47;10.37;;;5.30;;
34433;SDS011;34290;48.562;13.384;2023-04-06T06:27:15;11.80;;;5.77;;
34433;SDS011;34290;48.562;13.384;2023-04-06T06:29:42;8.47;;;4.70;;
34433;SDS011;34290;48.562;13.384;2023-04-06T06:32:10;8.77;;;5.23;;
34433;SDS011;34290;48.562;13.384;2023-04-06T06:34:38;13.23;;;5.37;;
34433;SDS011;34290;48.562;13.384;2023-04-06T06:37:05;8.85;;;5.07;;
34433;SDS011;34290;48.562;13.384;2023-04-06T06:39:32;13.87;;;7.07;;
34433;SDS011;34290;48.562;13.384;2023-04-06T06:41:59;12.77;;;5.40;;
34433;SDS011;34290;48.562;13.384;2023-04-06T06:44:27;11.40;;;5.85;;
34433;SDS011;34290;48.562;13.384;2023-04-06T06:46:54;9.02;;;5.40;;
34433;SDS011;34290;48.562;13.384;2023-04-06T06:49:22;9.45;;;5.60;;
34433;SDS011;34290;48.562;13.384;2023-04-06T06:51:49;9.82;;;5.07;;
34433;SDS011;34290;48.562;13.384;2023-04-06T06:54:16;9.88;;;5.45;;
34433;SDS011;34290;48.562;13.384;2023-04-06T06:56:43;8.63;;;5.20;;
34433;SDS011;34290;48.562;13.384;2023-04-06T06:59:11;8.23;;;5.50;;
34433;SDS011;34290;48.562;13.384;2023-04-06T07:01:38;9.93;;;5.03;;
34433;SDS011;34290;48.562;13.384;2023-04-06T07:04:05;11.50;;;4.95;;
34433;SDS011;34290;48.562;13.384;2023-04-06T07:06:35;12.20;;;5.20;;
34433;SDS011;34290;48.562;13.384;2023-04-06T07:09:02;10.18;;;5.40;;
34433;SDS011;34290;48.562;13.384;2023-04-06T07:11:29;11.63;;;5.88;;
34433;SDS011;34290;48.562;13.384;2023-04-06T07:13:56;9.02;;;5.32;;
34433;SDS011;34290;48.562;13.384;2023-04-06T07:16:23;9.50;;;4.90;;
34433;SDS011;34290;48.562;13.384;2023-04-06T07:18:50;9.63;;;4.85;;
34433;SDS011;34290;48.562;13.384;2023-04-06T07:21:17;11.07;;;5.22;;
34433;SDS011;34290;48.562;13.384;2023-04-06T07:23:46;11.85;;;5.30;;
34433;SDS011;34290;48.562;13.384;2023-04-06T07:26:13;15.32;;;5.20;;
34433;SDS011;34290;48.562;13.384;2023-04-06T07:28:41;12.60;;;5.07;;
34433;SDS011;34290;48.562;13.384;2023-04-06T07:31:08;9.35;;;4.70;;
34433;SDS011;34290;48.562;13.384;2023-04-06T07:33:35;13.75;;;5.45;;
34433;SDS011;34290;48.562;13.384;2023-04-06T07:36:02;8.38;;;4.88;;
34433;SDS011;34290;48.562;13.384;2023-04-06T07:38:30;9.73;;;4.90;;
34433;SDS011;34290;48.562;13.384;2023-04-06T07:40:58;9.50;;;4.95;;
34433;SDS011;34290;48.562;13.384;2023-04-06T07:43:28;8.68;;;4.82;;
34433;SDS011;34290;48.562;13.384;2023-04-06T07:45:55;10.55;;;4.72;;
34433;SDS011;34290;48.562;13.384;2023-04-06T07:48:22;10.98;;;4.68;;
34433;SDS011;34290;48.562;13.384;2023-04-06T07:50:49;7.30;;;4.70;;
34433;SDS011;34290;48.562;13.384;2023-04-06T07:53:16;11.20;;;5.72;;
34433;SDS011;34290;48.562;13.384;2023-04-06T07:55:44;9.07;;;5.03;;
34433;SDS011;34290;48.562;13.384;2023-04-06T07:58:12;7.15;;;4.00;;
34433;SDS011;34290;48.562;13.384;2023-04-06T08:00:39;9.07;;;4.88;;
34433;SDS011;34290;48.562;13.384;2023-04-06T08:03:06;10.48;;;4.63;;
34433;SDS011;34290;48.562;13.384;2023-04-06T08:05:33;6.97;;;4.28;;
34433;SDS011;34290;48.562;13.384;2023-04-06T08:08:00;8.50;;;4.70;;
34433;SDS011;34290;48.562;13.384;2023-04-06T08:10:27;10.00;;;4.55;;
34433;SDS011;34290;48.562;13.384;2023-04-06T08:12:55;6.47;;;4.13;;
34433;SDS011;34290;48.562;13.384;2023-04-06T08:15:23;8.00;;;4.50;;
34433;SDS011;34290;48.562;13.384;2023-04-06T08:17:51;6.05;;;3.85;;
34433;SDS011;34290;48.562;13.384;2023-04-06T08:20:18;8.80;;;4.05;;
34433;SDS011;34290;48.562;13.384;2023-04-06T08:22:45;8.00;;;3.78;;
34433;SDS011;34290;48.562;13.384;2023-04-06T08:25:12;5.97;;;3.75;;
34433;SDS011;34290;48.562;13.384;2023-04-06T08:27:39;8.60;;;3.72;;
34433;SDS011;34290;48.562;13.384;2023-04-06T08:30:07;6.82;;;3.55;;
34433;SDS011;34290;48.562;13.384;2023-04-06T08:32:36;5.90;;;3.53;;
34433;SDS011;34290;48.562;13.384;2023-04-06T08:35:03;8.38;;;4.10;;
34433;SDS011;34290;48.562;13.384;2023-04-06T08:37:31;8.77;;;3.65;;
34433;SDS011;34290;48.562;13.384;2023-04-06T08:39:58;6.20;;;4.00;;
34433;SDS011;34290;48.562;13.384;2023-04-06T08:42:25;7.32;;;4.45;;
34433;SDS011;34290;48.562;13.384;2023-04-06T08:44:55;8.35;;;4.30;;
34433;SDS011;34290;48.562;13.384;2023-04-06T08:47:22;7.65;;;4.50;;
34433;SDS011;34290;48.562;13.384;2023-04-06T08:49:50;7.20;;;4.75;;
34433;SDS011;34290;48.562;13.384;2023-04-06T08:52:18;8.55;;;4.50;;
34433;SDS011;34290;48.562;13.384;2023-04-06T08:54:47;7.15;;;4.28;;
34433;SDS011;34290;48.562;13.384;2023-04-06T08:57:15;8.05;;;4.75;;
34433;SDS011;34290;48.562;13.384;2023-04-06T08:59:42;10.32;;;4.57;;
34433;SDS011;34290;48.562;13.384;2023-04-06T09:02:11;8.02;;;4.60;;
34433;SDS011;34290;48.562;13.384;2023-04-06T09:04:43;8.43;;;4.10;;
34433;SDS011;34290;48.562;13.384;2023-04-06T09:07:13;11.77;;;4.30;;
34433;SDS011;34290;48.562;13.384;2023-04-06T09:09:40;7.45;;;4.30;;
34433;SDS011;34290;48.562;13.384;2023-04-06T09:12:21;11.75;;;4.60;;
34433;SDS011;34290;48.562;13.384;2023-04-06T09:14:49;7.90;;;4.10;;
34433;SDS011;34290;48.562;13.384;2023-04-06T09:17:19;7.13;;;4.30;;
34433;SDS011;34290;48.562;13.384;2023-04-06T09:19:48;7.43;;;4.32;;
34433;SDS011;34290;48.562;13.384;2023-04-06T09:22:17;11.85;;;4.78;;
34433;SDS011;34290;48.562;13.384;2023-04-06T09:24:46;6.72;;;4.25;;
34433;SDS011;34290;48.562;13.384;2023-04-06T09:27:14;6.65;;;4.28;;
34433;SDS011;34290;48.562;13.384;2023-04-06T09:29:42;10.02;;;4.55;;
34433;SDS011;34290;48.562;13.384;2023-04-06T09:32:09;8.10;;;4.60;;
34433;SDS011;34290;48.562;13.384;2023-04-06T09:34:37;9.65;;;4.93;;
34433;SDS011;34290;48.562;13.384;2023-04-06T09:37:14;9.40;;;4.68;;
34433;SDS011;34290;48.562;13.384;2023-04-06T09:39:43;9.50;;;4.90;;
34433;SDS011;34290;48.562;13.384;2023-04-06T09:42:11;8.60;;;4.85;;
34433;SDS011;34290;48.562;13.384;2023-04-06T09:44:38;8.88;;;5.47;;
34433;SDS011;34290;48.562;13.384;2023-04-06T09:47:06;10.85;;;5.25;;
34433;SDS011;34290;48.562;13.384;2023-04-06T09:49:34;10.40;;;5.53;;
34433;SDS011;34290;48.562;13.384;2023-04-06T09:52:02;9.57;;;5.10;;
34433;SDS011;34290;48.562;13.384;2023-04-06T09:54:31;8.80;;;5.45;;
34433;SDS011;34290;48.562;13.384;2023-04-06T09:57:01;7.03;;;4.55;;
34433;SDS011;34290;48.562;13.384;2023-04-06T09:59:36;7.68;;;4.70;;
34433;SDS011;34290;48.562;13.384;2023-04-06T10:02:12;9.90;;;5.28;;
34433;SDS011;34290;48.562;13.384;2023-04-06T10:04:43;8.73;;;5.22;;
34433;SDS011;34290;48.562;13.384;2023-04-06T10:07:10;6.78;;;4.70;;
34433;SDS011;34290;48.562;13.384;2023-04-06T10:09:38;10.68;;;5.85;;
34433;SDS011;34290;48.562;13.384;2023-04-06T10:12:06;9.30;;;5.25;;
34433;SDS011;34290;48.562;13.384;2023-04-06T10:14:34;10.55;;;6.03;;
34433;SDS011;34290;48.562;13.384;2023-04-06T10:17:02;9.07;;;5.50;;
34433;SDS011;34290;48.562;13.384;2023-04-06T10:19:32;10.07;;;5.20;;
34433;SDS011;34290;48.562;13.384;2023-04-06T10:22:01;11.10;;;5.77;;
34433;SDS011;34290;48.562;13.384;2023-04-06T10:24:31;9.73;;;5.93;;
34433;SDS011;34290;48.562;13.384;2023-04-06T10:26:58;10.27;;;6.40;;
34433;SDS011;34290;48.562;13.384;2023-04-06T10:29:31;10.97;;;5.73;;
34433;SDS011;34290;48.562;13.384;2023-04-06T10:32:08;9.80;;;5.57;;
34433;SDS011;34290;48.562;13.384;2023-04-06T10:34:35;9.32;;;5.20;;
34433;SDS011;34290;48.562;13.384;2023-04-06T10:37:10;10.30;;;5.40;;
34433;SDS011;34290;48.562;13.384;2023-04-06T10:39:45;9.25;;;5.22;;
34433;SDS011;34290;48.562;13.384;2023-04-06T10:42:12;9.55;;;5.13;;
34433;SDS011;34290;48.562;13.384;2023-04-06T10:44:43;8.10;;;4.88;;
34433;SDS011;34290;48.562;13.384;2023-04-06T10:47:17;11.38;;;5.63;;
34433;SDS011;34290;48.562;13.384;2023-04-06T10:49:44;11.68;;;5.75;;
34433;SDS011;34290;48.562;13.384;2023-04-06T10:52:12;10.85;;;5.60;;
34433;SDS011;34290;48.562;13.384;2023-04-06T10:54:42;8.27;;;4.97;;
34433;SDS011;34290;48.562;13.384;2023-04-06T10:57:10;8.32;;;5.47;;
34433;SDS011;34290;48.562;13.384;2023-04-06T10:59:43;11.05;;;5.60;;
34433;SDS011;34290;48.562;13.384;2023-04-06T11:02:18;8.02;;;5.25;;
34433;SDS011;34290;48.562;13.384;2023-04-06T11:04:53;9.75;;;5.20;;
34433;SDS011;34290;48.562;13.384;2023-04-06T11:07:24;8.45;;;4.72;;
34433;SDS011;34290;48.562;13.384;2023-04-06T11:09:55;8.82;;;5.50;;
34433;SDS011;34290;48.562;13.384;2023-04-06T11:12:22;8.48;;;4.32;;
34433;SDS011;34290;48.562;13.384;2023-04-06T11:14:55;12.45;;;4.63;;
34433;SDS011;34290;48.562;13.384;2023-04-06T11:17:27;8.68;;;4.60;;
34433;SDS011;34290;48.562;13.384;2023-04-06T11:19:55;6.32;;;4.28;;
34433;SDS011;34290;48.562;13.384;2023-04-06T11:22:22;7.43;;;4.25;;
34433;SDS011;34290;48.562;13.384;2023-04-06T11:24:50;9.38;;;4.50;;
34433;SDS011;34290;48.562;13.384;2023-04-06T11:27:17;6.97;;;4.60;;
34433;SDS011;34290;48.562;13.384;2023-04-06T11:29:45;8.52;;;4.60;;
34433;SDS011;34290;48.562;13.384;2023-04-06T11:32:21;8.90;;;5.05;;
34433;SDS011;34290;48.562;13.384;2023-04-06T11:34:49;6.70;;;4.60;;
34433;SDS011;34290;48.562;13.384;2023-04-06T11:37:16;8.88;;;5.25;;
34433;SDS011;34290;48.562;13.384;2023-04-06T11:39:46;8.50;;;4.78;;
34433;SDS011;34290;48.562;13.384;2023-04-06T11:42:25;11.02;;;5.00;;
34433;SDS011;34290;48.562;13.384;2023-04-06T11:44:53;10.15;;;4.95;;
34433;SDS011;34290;48.562;13.384;2023-04-06T11:47:27;9.40;;;4.40;;
34433;SDS011;34290;48.562;13.384;2023-04-06T11:49:55;7.05;;;4.35;;
34433;SDS011;34290;48.562;13.384;2023-04-06T11:52:25;7.78;;;4.53;;
34433;SDS011;34290;48.562;13.384;2023-04-06T11:54:53;9.02;;;4.88;;
34433;SDS011;34290;48.562;13.384;2023-04-06T11:57:22;11.85;;;4.85;;
34433;SDS011;34290;48.562;13.384;2023-04-06T11:59:50;10.13;;;4.63;;
34433;SDS011;34290;48.562;13.384;2023-04-06T12:02:17;9.48;;;4.90;;
34433;SDS011;34290;48.562;13.384;2023-04-06T12:04:46;10.73;;;4.85;;
34433;SDS011;34290;48.562;13.384;2023-04-06T12:07:13;6.35;;;4.40;;
34433;SDS011;34290;48.562;13.384;2023-04-06T12:09:41;10.07;;;5.00;;
34433;SDS011;34290;48.562;13.384;2023-04-06T12:12:08;8.48;;;4.55;;
34433;SDS011;34290;48.562;13.384;2023-04-06T12:14:35;8.18;;;4.38;;
34433;SDS011;34290;48.562;13.384;2023-04-06T12:17:02;7.93;;;4.50;;
34433;SDS011;34290;48.562;13.384;2023-04-06T12:19:29;10.98;;;4.60;;
34433;SDS011;34290;48.562;13.384;2023-04-06T12:21:58;8.25;;;4.47;;
34433;SDS011;34290;48.562;13.384;2023-04-06T12:24:25;6.53;;;4.60;;
34433;SDS011;34290;48.562;13.384;2023-04-06T12:26:52;12.15;;;4.50;;
34433;SDS011;34290;48.562;13.384;2023-04-06T12:29:20;8.00;;;4.65;;
34433;SDS011;34290;48.562;13.384;2023-04-06T12:31:47;8.25;;;4.22;;
34433;SDS011;34290;48.562;13.384;2023-04-06T12:34:14;7.70;;;3.83;;
34433;SDS011;34290;48.562;13.384;2023-04-06T12:36:41;10.23;;;3.85;;
34433;SDS011;34290;48.562;13.384;2023-04-06T12:39:10;7.65;;;4.03;;
34433;SDS011;34290;48.562;13.384;2023-04-06T12:41:37;8.68;;;4.40;;
34433;SDS011;34290;48.562;13.384;2023-04-06T12:44:06;8.95;;;4.75;;
34433;SDS011;34290;48.562;13.384;2023-04-06T12:46:33;6.90;;;4.35;;
34433;SDS011;34290;48.562;13.384;2023-04-06T12:49:01;7.05;;;4.32;;
34433;SDS011;34290;48.562;13.384;2023-04-06T12:51:28;6.80;;;4.30;;
34433;SDS011;34290;48.562;13.384;2023-04-06T12:53:56;7.25;;;4.20;;
34433;SDS011;34290;48.562;13.384;2023-04-06T12:56:25;7.63;;;4.28;;
34433;SDS011;34290;48.562;13.384;2023-04-06T12:58:56;7.78;;;4.45;;
34433;SDS011;34290;48.562;13.384;2023-04-06T13:01:23;7.20;;;4.00;;
34433;SDS011;34290;48.562;13.384;2023-04-06T13:03:52;8.35;;;4.55;;
34433;SDS011;34290;48.562;13.384;2023-04-06T13:06:20;12.13;;;4.60;;
34433;SDS011;34290;48.562;13.384;2023-04-06T13:08:47;7.70;;;4.50;;
34433;SDS011;34290;48.562;13.384;2023-04-06T13:11:15;6.03;;;4.00;;
34433;SDS011;34290;48.562;13.384;2023-04-06T13:13:43;7.18;;;4.32;;
34433;SDS011;34290;48.562;13.384;2023-04-06T13:16:11;6.30;;;4.13;;
34433;SDS011;34290;48.562;13.384;2023-04-06T13:18:38;10.57;;;4.57;;
34433;SDS011;34290;48.562;13.384;2023-04-06T13:21:05;8.63;;;4.10;;
34433;SDS011;34290;48.562;13.384;2023-04-06T13:23:32;7.68;;;3.92;;
34433;SDS011;34290;48.562;13.384;2023-04-06T13:26:00;6.70;;;4.05;;
34433;SDS011;34290;48.562;13.384;2023-04-06T13:28:29;9.73;;;4.63;;
34433;SDS011;34290;48.562;13.384;2023-04-06T13:30:58;6.50;;;4.10;;
34433;SDS011;34290;48.562;13.384;2023-04-06T13:33:26;6.47;;;4.10;;
34433;SDS011;34290;48.562;13.384;2023-04-06T13:35:53;9.30;;;3.70;;
34433;SDS011;34290;48.562;13.384;2023-04-06T13:38:21;5.40;;;3.53;;
34433;SDS011;34290;48.562;13.384;2023-04-06T13:40:49;6.33;;;3.57;;
34433;SDS011;34290;48.562;13.384;2023-04-06T13:43:17;7.00;;;3.80;;
34433;SDS011;34290;48.562;13.384;2023-04-06T13:45:48;8.03;;;4.10;;
34433;SDS011;34290;48.562;13.384;2023-04-06T13:48:16;9.40;;;4.57;;
34433;SDS011;34290;48.562;13.384;2023-04-06T13:50:44;9.50;;;4.70;;
34433;SDS011;34290;48.562;13.384;2023-04-06T13:53:11;8.13;;;4.37;;
34433;SDS011;34290;48.562;13.384;2023-04-06T13:55:39;6.67;;;3.73;;
34433;SDS011;34290;48.562;13.384;2023-04-06T13:58:06;8.47;;;3.50;;
34433;SDS011;34290;48.562;13.384;2023-04-06T14:00:33;9.17;;;4.20;;
34433;SDS011;34290;48.562;13.384;2023-04-06T14:03:00;8.83;;;4.17;;
34433;SDS011;34290;48.562;13.384;2023-04-06T14:05:31;6.83;;;3.80;;
34433;SDS011;34290;48.562;13.384;2023-04-06T14:07:59;6.23;;;4.07;;
34433;SDS011;34290;48.562;13.384;2023-04-06T14:10:26;7.30;;;4.03;;
34433;SDS011;34290;48.562;13.384;2023-04-06T14:12:53;6.80;;;3.87;;
34433;SDS011;34290;48.562;13.384;2023-04-06T14:15:21;7.50;;;4.07;;
34433;SDS011;34290;48.562;13.384;2023-04-06T14:17:48;6.37;;;3.90;;
34433;SDS011;34290;48.562;13.384;2023-04-06T14:20:16;6.93;;;4.40;;
34433;SDS011;34290;48.562;13.384;2023-04-06T14:22:45;9.43;;;5.10;;
34433;SDS011;34290;48.562;13.384;2023-04-06T14:25:14;7.00;;;4.20;;
34433;SDS011;34290;48.562;13.384;2023-04-06T14:27:42;7.13;;;4.13;;
34433;SDS011;34290;48.562;13.384;2023-04-06T14:30:09;8.43;;;4.77;;
34433;SDS011;34290;48.562;13.384;2023-04-06T14:32:37;8.47;;;4.67;;
34433;SDS011;34290;48.562;13.384;2023-04-06T14:35:05;12.60;;;6.00;;